createdAt,value
2018-10-02T00:02:24.414Z,71.30
2018-10-02T00:04:54.104Z,70.12
2018-10-02T00:07:23.917Z,70.85
2018-10-02T00:09:53.601Z,67.62
2018-10-02T00:12:28.336Z,67.65
2018-10-02T00:14:58.040Z,66.82
2018-10-02T00:17:27.752Z,64.95
2018-10-02T00:19:57.476Z,67.40
2018-10-02T00:22:27.059Z,65.92
2018-10-02T00:24:56.763Z,65.37
2018-10-02T00:27:26.716Z,65.25
2018-10-02T00:29:56.411Z,63.83
2018-10-02T00:32:26.683Z,63.05
2018-10-02T00:34:56.204Z,63.33
2018-10-02T00:37:26.031Z,65.70
2018-10-02T00:39:55.860Z,64.05
2018-10-02T00:42:25.637Z,61.88
2018-10-02T00:44:55.420Z,63.80
2018-10-02T00:47:25.183Z,62.80
2018-10-02T00:49:54.889Z,62.62
2018-10-02T00:52:24.603Z,62.48
2018-10-02T00:54:54.302Z,61.45
2018-10-02T00:57:23.893Z,61.40
2018-10-02T00:59:53.661Z,61.15
2018-10-02T01:02:23.308Z,58.98
2018-10-02T01:04:52.989Z,60.50
2018-10-02T01:07:22.816Z,58.60
2018-10-02T01:09:52.532Z,58.75
2018-10-02T01:12:22.479Z,57.93
2018-10-02T01:14:52.156Z,57.05
2018-10-02T01:17:21.856Z,57.35
2018-10-02T01:19:51.595Z,58.35
2018-10-02T01:22:21.278Z,57.05
2018-10-02T01:24:51.008Z,55.90
2018-10-02T01:27:20.760Z,55.52
2018-10-02T01:29:50.528Z,55.83
2018-10-02T01:32:20.236Z,55.25
2018-10-02T01:34:49.827Z,54.60
2018-10-02T01:37:19.603Z,54.90
2018-10-02T01:39:49.255Z,53.68
2018-10-02T01:42:18.923Z,53.58
2018-10-02T01:44:48.811Z,53.58
2018-10-02T01:47:18.820Z,52.15
2018-10-02T01:49:48.599Z,51.37
2018-10-02T01:52:18.283Z,51.73
2018-10-02T01:54:48.092Z,51.60
2018-10-02T01:57:17.930Z,52.78
2018-10-02T01:59:47.752Z,52.93
2018-10-02T02:02:17.555Z,51.70
2018-10-02T02:04:47.364Z,50.48
2018-10-02T02:07:17.176Z,50.40
2018-10-02T02:09:46.960Z,50.03
2018-10-02T02:12:16.806Z,50.12
2018-10-02T02:14:46.587Z,48.20
2018-10-02T02:17:16.284Z,49.55
2018-10-02T02:19:46.146Z,50.08
2018-10-02T02:22:15.908Z,47.43
2018-10-02T02:24:45.697Z,47.55
2018-10-02T02:27:15.558Z,47.00
2018-10-02T02:29:45.231Z,48.08
2018-10-02T02:32:15.166Z,47.88
2018-10-02T02:34:44.884Z,48.35
2018-10-02T02:37:14.577Z,46.88
2018-10-02T02:39:44.245Z,45.95
2018-10-02T02:42:13.927Z,45.95
2018-10-02T02:44:43.579Z,44.75
2018-10-02T02:47:18.452Z,44.95
2018-10-02T02:49:53.123Z,44.77
2018-10-02T02:52:24.532Z,43.85
2018-10-02T02:54:54.325Z,44.10
2018-10-02T02:57:24.236Z,45.35
2018-10-02T02:59:53.923Z,45.23
2018-10-02T03:02:23.651Z,42.83
2018-10-02T03:04:53.364Z,42.40
2018-10-02T03:07:23.235Z,41.33
2018-10-02T03:09:52.888Z,41.15
2018-10-02T03:12:22.568Z,42.33
2018-10-02T03:14:52.348Z,42.10
2018-10-02T03:17:22.116Z,39.90
2018-10-02T03:19:51.820Z,42.35
2018-10-02T03:22:21.472Z,41.25
2018-10-02T03:24:51.141Z,39.98
2018-10-02T03:27:20.826Z,37.95
2018-10-02T03:29:50.871Z,40.90
2018-10-02T03:32:20.658Z,38.95
2018-10-02T03:34:50.379Z,39.48
2018-10-02T03:37:20.135Z,40.23
2018-10-02T03:39:49.745Z,37.95
2018-10-02T03:42:19.543Z,37.65
2018-10-02T03:44:49.206Z,37.78
2018-10-02T03:47:18.891Z,35.85
2018-10-02T03:49:48.632Z,35.20
2018-10-02T03:52:18.304Z,34.88
2018-10-02T03:54:48.068Z,35.68
2018-10-02T03:57:17.732Z,37.87
2018-10-02T03:59:47.456Z,35.90
2018-10-02T04:02:17.473Z,33.85
2018-10-02T04:04:47.187Z,35.80
2018-10-02T04:07:16.952Z,34.25
2018-10-02T04:09:46.676Z,34.23
2018-10-02T04:12:16.407Z,34.43
2018-10-02T04:14:46.017Z,34.50
2018-10-02T04:17:15.727Z,34.80
2018-10-02T04:19:45.436Z,31.57
2018-10-02T04:22:15.248Z,33.55
2018-10-02T04:24:44.944Z,32.33
2018-10-02T04:27:14.776Z,30.88
2018-10-02T04:29:44.615Z,32.78
2018-10-02T04:32:14.367Z,31.33
2018-10-02T04:34:44.005Z,30.97
2018-10-02T04:37:13.704Z,30.70
2018-10-02T04:39:43.389Z,30.75
2018-10-02T04:42:13.147Z,30.10
2018-10-02T04:44:42.831Z,31.33
2018-10-02T04:47:12.620Z,29.63
2018-10-02T04:49:42.457Z,30.17
2018-10-02T04:52:12.161Z,29.37
2018-10-02T04:54:41.966Z,30.23
2018-10-02T04:57:11.648Z,31.10
2018-10-02T04:59:41.366Z,28.62
2018-10-02T05:02:11.207Z,29.32
2018-10-02T05:04:40.880Z,29.48
2018-10-02T05:07:10.613Z,29.52
2018-10-02T05:09:40.453Z,27.73
2018-10-02T05:12:10.033Z,27.55
2018-10-02T05:14:39.740Z,28.95
2018-10-02T05:17:09.496Z,27.60
2018-10-02T05:19:39.201Z,27.48
2018-10-02T05:22:09.019Z,28.12
2018-10-02T05:24:38.828Z,27.75
2018-10-02T05:27:08.390Z,26.68
2018-10-02T05:29:37.989Z,27.58
2018-10-02T05:32:07.696Z,25.77
2018-10-02T05:34:37.381Z,25.85
2018-10-02T05:37:07.149Z,26.17
2018-10-02T05:39:37.004Z,24.85
2018-10-02T05:42:06.788Z,25.15
2018-10-02T05:44:36.651Z,24.35
2018-10-02T05:47:06.446Z,25.12
2018-10-02T05:49:36.269Z,26.30
2018-10-02T05:52:06.056Z,27.48
2018-10-02T05:54:35.913Z,25.65
2018-10-02T05:57:05.691Z,25.48
2018-10-02T05:59:35.340Z,25.68
2018-10-02T06:02:05.307Z,26.75
2018-10-02T06:04:35.024Z,25.88
2018-10-02T06:07:04.715Z,24.98
2018-10-02T06:09:34.448Z,25.00
2018-10-02T06:12:04.056Z,24.95
2018-10-02T06:14:33.735Z,26.27
2018-10-02T06:17:03.562Z,28.85
2018-10-02T06:19:33.251Z,36.73
2018-10-02T06:22:03.073Z,50.75
2018-10-02T06:24:32.903Z,41.98
2018-10-02T06:27:02.683Z,42.58
2018-10-02T06:29:32.442Z,37.95
2018-10-02T06:32:02.102Z,37.65
2018-10-02T06:34:31.796Z,44.77
2018-10-02T06:37:01.644Z,42.48
2018-10-02T06:39:32.674Z,45.98
2018-10-02T06:42:02.857Z,44.35
2018-10-02T06:44:33.134Z,44.67
2018-10-02T06:47:02.814Z,44.65
2018-10-02T06:49:32.517Z,51.40
2018-10-02T06:52:02.793Z,47.70
2018-10-02T06:54:32.354Z,63.73
2018-10-02T06:57:02.139Z,64.35
2018-10-02T06:59:31.756Z,53.42
2018-10-02T07:02:01.488Z,48.68
2018-10-02T07:04:31.196Z,49.90
2018-10-02T07:07:00.885Z,52.83
2018-10-02T07:09:30.540Z,62.58
2018-10-02T07:12:00.245Z,83.33
2018-10-02T07:14:30.033Z,66.22
2018-10-02T07:16:59.809Z,59.18
2018-10-02T07:19:29.508Z,70.97
2018-10-02T07:21:59.282Z,66.07
2018-10-02T07:24:28.887Z,57.25
2018-10-02T07:26:58.628Z,57.53
2018-10-02T07:29:28.337Z,56.10
2018-10-02T07:31:58.075Z,54.95
2018-10-02T07:34:27.752Z,57.05
2018-10-02T07:36:57.526Z,56.00
2018-10-02T07:39:27.193Z,54.18
2018-10-02T07:41:56.954Z,54.88
2018-10-02T07:44:26.757Z,54.55
2018-10-02T07:46:56.393Z,52.62
2018-10-02T07:49:27.175Z,51.83
2018-10-02T07:51:56.929Z,54.03
2018-10-02T07:54:26.796Z,50.38
2018-10-02T07:56:56.467Z,53.15
2018-10-02T07:59:26.513Z,50.20
2018-10-02T08:01:56.101Z,49.55
2018-10-02T08:04:25.776Z,50.38
2018-10-02T08:06:55.573Z,48.58
2018-10-02T08:09:25.301Z,47.38
2018-10-02T08:11:55.101Z,47.73
2018-10-02T08:14:24.877Z,47.25
2018-10-02T08:16:54.532Z,45.33
2018-10-02T08:19:24.364Z,45.88
2018-10-02T08:21:54.141Z,44.88
2018-10-02T08:24:23.852Z,44.18
2018-10-02T08:26:53.693Z,44.05
2018-10-02T08:29:23.559Z,42.40
2018-10-02T08:31:53.412Z,42.03
2018-10-02T08:34:23.113Z,43.52
2018-10-02T08:36:52.927Z,42.48
2018-10-02T08:39:22.739Z,42.83
2018-10-02T08:41:52.440Z,42.20
2018-10-02T08:44:22.092Z,41.08
2018-10-02T08:46:51.780Z,38.92
2018-10-02T08:49:21.588Z,40.28
2018-10-02T08:51:51.559Z,39.73
2018-10-02T08:54:21.373Z,38.60
2018-10-02T08:56:51.101Z,37.38
2018-10-02T08:59:20.917Z,38.17
2018-10-02T09:01:50.521Z,37.78
2018-10-02T09:04:20.307Z,38.40
2018-10-02T09:06:50.049Z,36.23
2018-10-02T09:09:19.940Z,35.40
2018-10-02T09:11:49.539Z,36.40
2018-10-02T09:14:19.392Z,35.00
2018-10-02T09:16:49.363Z,34.05
2018-10-02T09:19:19.054Z,34.70
2018-10-02T09:21:48.943Z,32.85
2018-10-02T09:24:18.577Z,42.75
2018-10-02T09:26:48.414Z,45.75
2018-10-02T09:29:18.248Z,62.70
2018-10-02T09:31:53.005Z,42.88
2018-10-02T09:34:28.287Z,38.58
2018-10-02T09:37:03.061Z,44.53
2018-10-02T09:39:37.913Z,26.07
2018-10-02T09:42:12.592Z,20.30
2018-10-02T09:44:42.392Z,20.52
2018-10-02T09:47:12.174Z,19.15
2018-10-02T09:49:42.016Z,19.17
2018-10-02T09:52:11.837Z,16.87
2018-10-02T09:54:41.521Z,15.93
2018-10-02T09:57:11.252Z,16.05
2018-10-02T09:59:41.016Z,13.90
2018-10-02T10:02:15.461Z,24.40
2018-10-02T10:04:45.173Z,63.15
2018-10-02T10:07:14.857Z,48.35
2018-10-02T10:09:44.585Z,58.70
2018-10-02T10:12:14.272Z,50.95
2018-10-02T10:14:43.949Z,43.75
2018-10-02T10:17:13.801Z,30.57
2018-10-02T10:19:43.392Z,19.12
2018-10-02T10:22:13.336Z,9.28
2018-10-02T10:24:43.129Z,5.22
2018-10-02T10:27:12.993Z,3.22
2018-10-02T10:29:42.787Z,2.70
2018-10-02T10:32:12.600Z,4.42
2018-10-02T10:34:42.452Z,1.95
2018-10-02T10:37:12.160Z,2.75
2018-10-02T10:39:41.943Z,25.92
2018-10-02T10:42:11.624Z,12.05
2018-10-02T10:44:41.296Z,13.70
2018-10-02T10:47:11.048Z,6.67
2018-10-02T10:49:40.705Z,4.17
2018-10-02T10:52:10.308Z,4.40
2018-10-02T10:54:40.057Z,6.40
2018-10-02T10:57:09.747Z,6.53
2018-10-02T10:59:39.363Z,6.30
2018-10-02T11:02:09.021Z,50.55
2018-10-02T11:04:38.835Z,54.60
2018-10-02T11:07:08.482Z,75.12
2018-10-02T11:09:38.932Z,50.63
2018-10-02T11:12:08.672Z,43.78
2018-10-02T11:14:38.448Z,46.83
2018-10-02T11:17:08.196Z,45.78
2018-10-02T11:19:38.188Z,43.35
2018-10-02T11:22:07.861Z,40.75
2018-10-02T11:24:37.680Z,37.30
2018-10-02T11:27:07.491Z,22.65
2018-10-02T11:29:37.174Z,23.52
2018-10-02T11:32:07.228Z,21.95
2018-10-02T11:34:37.003Z,22.07
2018-10-02T11:37:06.841Z,19.42
2018-10-02T11:39:36.514Z,15.72
2018-10-02T11:42:06.296Z,13.50
2018-10-02T11:44:36.207Z,11.30
2018-10-02T11:47:05.965Z,10.32
2018-10-02T11:49:36.039Z,11.40
2018-10-02T11:52:05.693Z,7.95
2018-10-02T11:54:35.407Z,8.00
2018-10-02T11:57:05.078Z,7.00
2018-10-02T11:59:34.817Z,6.83
2018-10-02T12:02:04.587Z,8.23
2018-10-02T12:04:34.334Z,9.13
2018-10-02T12:07:04.168Z,15.10
2018-10-02T12:09:33.904Z,11.00
2018-10-02T12:12:03.598Z,6.35
2018-10-02T12:14:33.454Z,10.18
2018-10-02T12:17:02.972Z,6.15
2018-10-02T12:19:32.785Z,5.90
2018-10-02T12:22:02.509Z,7.58
2018-10-02T12:24:32.194Z,5.67
2018-10-02T12:27:01.968Z,3.87
2018-10-02T12:29:31.759Z,33.05
2018-10-02T12:32:02.141Z,48.90
2018-10-02T12:34:31.865Z,41.15
2018-10-02T12:37:01.581Z,50.98
2018-10-02T12:39:31.294Z,48.73
2018-10-02T12:42:01.081Z,42.30
2018-10-02T12:44:30.699Z,39.08
2018-10-02T12:47:00.556Z,37.85
2018-10-02T12:49:30.217Z,26.70
2018-10-02T12:52:00.054Z,21.62
2018-10-02T12:54:29.717Z,23.02
2018-10-02T12:56:59.576Z,21.48
2018-10-02T12:59:29.298Z,15.18
2018-10-02T13:01:59.037Z,16.93
2018-10-02T13:04:28.848Z,13.50
2018-10-02T13:06:58.697Z,13.10
2018-10-02T13:09:28.486Z,11.97
2018-10-02T13:11:58.997Z,11.57
2018-10-02T13:14:28.924Z,13.88
2018-10-02T13:16:58.756Z,10.10
2018-10-02T13:19:28.687Z,9.60
2018-10-02T13:21:58.494Z,8.80
2018-10-02T13:24:28.373Z,8.05
2018-10-02T13:26:58.134Z,7.78
2018-10-02T13:29:27.992Z,7.33
2018-10-02T13:31:57.816Z,8.10
2018-10-02T13:34:27.538Z,6.87
2018-10-02T13:36:57.238Z,7.87
2018-10-02T13:39:27.269Z,6.75
2018-10-02T13:41:57.096Z,10.15
2018-10-02T13:44:27.001Z,9.43
2018-10-02T13:46:56.810Z,9.70
2018-10-02T13:49:26.632Z,10.82
2018-10-02T13:51:56.588Z,12.93
2018-10-02T13:54:26.257Z,12.82
2018-10-02T13:56:55.979Z,11.68
2018-10-02T13:59:25.737Z,10.55
2018-10-02T14:01:56.216Z,9.90
2018-10-02T14:04:26.037Z,8.93
2018-10-02T14:06:55.831Z,10.30
2018-10-02T14:09:25.544Z,30.68
2018-10-02T14:11:55.329Z,28.45
2018-10-02T14:14:25.064Z,30.82
2018-10-02T14:16:54.774Z,32.65
2018-10-02T14:19:24.454Z,24.72
2018-10-02T14:21:54.412Z,31.52
2018-10-02T14:24:24.193Z,26.37
2018-10-02T14:26:54.020Z,21.70
2018-10-02T14:29:23.701Z,26.48
2018-10-02T14:31:53.388Z,21.27
2018-10-02T14:34:23.142Z,20.65
2018-10-02T14:36:52.825Z,19.50
2018-10-02T14:39:23.156Z,17.67
2018-10-02T14:41:52.852Z,17.73
2018-10-02T14:44:22.597Z,17.12
2018-10-02T14:46:52.271Z,17.57
2018-10-02T14:49:21.962Z,17.30
2018-10-02T14:51:51.812Z,16.35
2018-10-02T14:54:21.547Z,15.80
2018-10-02T14:56:51.192Z,14.63
2018-10-02T14:59:21.088Z,15.00
2018-10-02T15:01:50.760Z,15.23
2018-10-02T15:04:20.464Z,16.27
2018-10-02T15:06:50.211Z,21.97
2018-10-02T15:09:19.825Z,17.75
2018-10-02T15:11:50.060Z,15.75
2018-10-02T15:14:19.754Z,16.62
2018-10-02T15:16:49.509Z,16.00
2018-10-02T15:19:19.292Z,16.67
2018-10-02T15:21:49.081Z,16.12
2018-10-02T15:24:18.816Z,17.32
2018-10-02T15:26:48.606Z,16.05
2018-10-02T15:29:18.492Z,16.93
2018-10-02T15:31:48.301Z,17.70
2018-10-02T15:34:18.133Z,12.80
2018-10-02T15:36:47.741Z,13.90
2018-10-02T15:39:17.552Z,12.43
2018-10-02T15:41:47.308Z,79.53
2018-10-02T15:44:17.091Z,27.95
2018-10-02T15:46:46.860Z,27.73
2018-10-02T15:49:16.617Z,22.10
2018-10-02T15:51:46.441Z,16.65
2018-10-02T15:54:16.285Z,12.40
2018-10-02T15:56:46.096Z,14.13
2018-10-02T15:59:15.805Z,16.10
2018-10-02T16:01:45.724Z,18.65
2018-10-02T16:04:15.554Z,17.42
2018-10-02T16:06:45.212Z,17.48
2018-10-02T16:09:14.927Z,17.32
2018-10-02T16:11:45.178Z,18.12
2018-10-02T16:14:14.853Z,15.95
2018-10-02T16:16:44.753Z,15.78
2018-10-02T16:19:14.578Z,15.25
2018-10-02T16:21:44.459Z,14.80
2018-10-02T16:24:14.229Z,14.83
2018-10-02T16:26:43.960Z,15.28
2018-10-02T16:29:13.684Z,15.25
2018-10-02T16:31:44.680Z,15.58
2018-10-02T16:34:14.296Z,14.30
2018-10-02T16:36:44.024Z,14.65
2018-10-02T16:39:13.752Z,14.47
2018-10-02T16:41:43.621Z,14.13
2018-10-02T16:44:13.604Z,13.30
2018-10-02T16:46:43.648Z,13.38
2018-10-02T16:49:13.438Z,14.18
2018-10-02T16:51:43.263Z,13.83
2018-10-02T16:54:13.401Z,13.83
2018-10-02T16:56:43.204Z,12.35
2018-10-02T16:59:13.342Z,13.03
2018-10-02T17:01:43.559Z,13.70
2018-10-02T17:04:13.385Z,12.43
2018-10-02T17:06:43.162Z,13.18
2018-10-02T17:09:13.173Z,12.75
2018-10-02T17:11:42.968Z,12.90
2018-10-02T17:14:12.698Z,13.03
2018-10-02T17:16:42.618Z,11.50
2018-10-02T17:19:12.381Z,11.97
2018-10-02T17:21:42.131Z,11.97
2018-10-02T17:24:11.622Z,12.47
2018-10-02T17:26:41.524Z,12.05
2018-10-02T17:29:11.664Z,11.40
2018-10-02T17:31:41.348Z,10.70
2018-10-02T17:34:10.800Z,10.80
2018-10-02T17:36:40.722Z,11.18
2018-10-02T17:39:11.521Z,11.05
2018-10-02T17:41:41.328Z,11.45
2018-10-02T17:44:11.044Z,10.03
2018-10-02T17:46:40.955Z,10.13
2018-10-02T17:49:10.765Z,10.60
2018-10-02T17:51:40.670Z,10.60
2018-10-02T17:54:10.388Z,117.77
2018-10-02T17:56:40.073Z,33.55
2018-10-02T17:59:09.714Z,21.15
2018-10-02T18:01:39.989Z,22.10
2018-10-02T18:04:09.849Z,19.95
2018-10-02T18:06:39.838Z,19.50
2018-10-02T18:09:09.640Z,18.75
2018-10-02T18:11:39.696Z,17.62
2018-10-02T18:14:09.254Z,17.70
2018-10-02T18:16:39.691Z,16.60
2018-10-02T18:19:10.264Z,16.10
2018-10-02T18:21:40.418Z,16.75
2018-10-02T18:24:10.832Z,16.15
2018-10-02T18:26:40.991Z,15.32
2018-10-02T18:29:12.750Z,15.35
2018-10-02T18:31:43.077Z,14.53
2018-10-02T18:34:13.196Z,13.93
2018-10-02T18:36:43.589Z,13.68
2018-10-02T18:39:13.996Z,14.33
2018-10-02T18:41:43.992Z,14.95
2018-10-02T18:44:14.016Z,16.25
2018-10-02T18:46:46.020Z,44.40
2018-10-02T18:49:16.503Z,52.10
2018-10-02T18:51:46.541Z,45.55
2018-10-02T18:54:17.463Z,44.53
2018-10-02T18:56:47.638Z,44.93
2018-10-02T18:59:17.813Z,38.35
2018-10-02T19:01:47.892Z,39.30
2018-10-02T19:04:19.047Z,50.50
2018-10-02T19:06:49.239Z,42.75
2018-10-02T19:09:19.619Z,49.13
2018-10-02T19:11:54.679Z,48.83
2018-10-02T19:14:24.703Z,48.95
2018-10-02T19:16:54.830Z,47.33
2018-10-02T19:19:30.625Z,48.80
2018-10-02T19:22:00.890Z,47.33
2018-10-02T19:24:31.127Z,47.50
2018-10-02T19:27:01.984Z,48.92
2018-10-02T19:29:32.014Z,48.63
2018-10-02T19:32:19.243Z,48.10
2018-10-02T19:34:49.480Z,48.00
2018-10-02T19:37:24.517Z,47.95
2018-10-02T19:39:54.474Z,50.03
2018-10-02T19:42:24.555Z,60.85
2018-10-02T19:44:54.691Z,52.38
2018-10-02T19:47:24.874Z,55.48
2018-10-02T19:49:55.087Z,58.70
2018-10-02T19:52:25.124Z,62.03
2018-10-02T19:54:55.120Z,68.65
2018-10-02T19:57:25.371Z,64.00
2018-10-02T19:59:56.445Z,63.52
2018-10-02T20:02:26.864Z,66.60
2018-10-02T20:04:56.846Z,65.32
2018-10-02T20:07:27.125Z,70.70
2018-10-02T20:09:57.287Z,65.22
2018-10-02T20:12:27.328Z,68.78
2018-10-02T20:14:57.369Z,68.72
2018-10-02T20:17:29.284Z,75.03
2018-10-02T20:19:59.269Z,70.15
2018-10-02T20:22:35.661Z,72.27
2018-10-02T20:25:06.024Z,92.30
2018-10-02T20:27:35.797Z,111.35
2018-10-02T20:30:06.797Z,108.40
2018-10-02T20:32:36.492Z,103.32
2018-10-02T20:35:06.078Z,110.40
2018-10-02T20:37:36.153Z,107.22
2018-10-02T20:40:05.881Z,114.35
2018-10-02T20:42:35.648Z,110.97
2018-10-02T20:45:05.384Z,131.72
2018-10-02T20:47:35.117Z,128.78
2018-10-02T20:50:04.900Z,121.30
2018-10-02T20:52:34.580Z,119.65
2018-10-02T20:55:04.468Z,125.30
2018-10-02T20:57:34.605Z,104.75
2018-10-02T21:00:04.506Z,87.90
2018-10-02T21:02:34.357Z,99.42
2018-10-02T21:05:04.248Z,97.10
2018-10-02T21:07:34.005Z,125.67
2018-10-02T21:10:03.771Z,166.07
2018-10-02T21:12:33.376Z,159.75
2018-10-02T21:15:03.135Z,149.47
2018-10-02T21:17:32.715Z,155.65
2018-10-02T21:20:02.420Z,161.45
2018-10-02T21:22:32.971Z,159.95
2018-10-02T21:25:02.649Z,99.45
2018-10-02T21:27:32.289Z,119.85
2018-10-02T21:30:02.057Z,147.62
2018-10-02T21:32:31.812Z,120.10
2018-10-02T21:35:01.672Z,112.65
2018-10-02T21:37:31.470Z,109.95
2018-10-02T21:40:01.375Z,160.18
2018-10-02T21:42:31.164Z,162.68
2018-10-02T21:45:01.224Z,170.68
2018-10-02T21:47:30.925Z,176.02
2018-10-02T21:50:00.625Z,131.10
2018-10-02T21:52:30.448Z,151.20
2018-10-02T21:55:00.146Z,158.42
2018-10-02T21:57:29.857Z,165.40
2018-10-02T21:59:59.696Z,167.30
2018-10-02T22:02:29.352Z,171.72
2018-10-02T22:04:59.108Z,166.12
2018-10-02T22:07:28.888Z,153.85
2018-10-02T22:09:58.640Z,137.18
2018-10-02T22:12:28.395Z,153.65
2018-10-02T22:14:58.213Z,158.00
2018-10-02T22:17:27.936Z,157.15
2018-10-02T22:19:57.637Z,136.25
2018-10-02T22:22:27.348Z,141.18
2018-10-02T22:24:57.068Z,140.28
2018-10-02T22:27:26.793Z,140.25
2018-10-02T22:29:56.435Z,137.37
2018-10-02T22:32:26.300Z,131.22
2018-10-02T22:34:56.069Z,134.32
2018-10-02T22:37:25.816Z,135.68
2018-10-02T22:39:55.641Z,132.78
2018-10-02T22:42:25.392Z,126.50
2018-10-02T22:44:55.257Z,127.87
2018-10-02T22:47:24.926Z,125.15
2018-10-02T22:49:54.676Z,124.38
2018-10-02T22:52:24.356Z,117.75
2018-10-02T22:54:54.088Z,93.58
2018-10-02T22:57:23.872Z,88.85
2018-10-02T22:59:53.456Z,102.87
2018-10-02T23:02:23.141Z,105.47
2018-10-02T23:04:52.892Z,101.35
2018-10-02T23:07:22.701Z,108.25
2018-10-02T23:09:52.359Z,93.82
2018-10-02T23:12:22.123Z,96.82
2018-10-02T23:14:51.805Z,99.35
2018-10-02T23:17:21.456Z,100.78
2018-10-02T23:19:51.125Z,96.02
2018-10-02T23:22:20.888Z,97.27
2018-10-02T23:24:50.558Z,92.50
2018-10-02T23:27:20.231Z,90.83
2018-10-02T23:29:50.004Z,87.35
2018-10-02T23:32:20.056Z,86.47
2018-10-02T23:34:49.820Z,86.80
2018-10-02T23:37:19.548Z,84.05
2018-10-02T23:39:49.208Z,83.33
2018-10-02T23:42:19.329Z,81.57
2018-10-02T23:44:48.993Z,80.40
2018-10-02T23:47:18.648Z,74.75
2018-10-02T23:49:48.332Z,75.35
2018-10-02T23:52:18.088Z,73.20
2018-10-02T23:54:47.768Z,73.37
2018-10-02T23:57:17.574Z,71.45
2018-10-02T23:59:47.292Z,70.67
